sensor_id;sensor_type;location;lat;lon;timestamp;temperature;humidity
21104;DHT22;10710;53.398;-1.514;2022-12-07T00:02:24;4.90;99.90
21104;DHT22;10710;53.398;-1.514;2022-12-07T00:04:50;5.00;99.90
21104;DHT22;10710;53.398;-1.514;2022-12-07T00:07:16;5.00;99.90
21104;DHT22;10710;53.398;-1.514;2022-12-07T00:09:42;5.10;99.90
21104;DHT22;10710;53.398;-1.514;2022-12-07T00:12:08;5.00;99.90
21104;DHT22;10710;53.398;-1.514;2022-12-07T00:14:38;5.00;99.90
21104;DHT22;10710;53.398;-1.514;2022-12-07T00:17:06;4.90;99.90
21104;DHT22;10710;53.398;-1.514;2022-12-07T00:19:35;5.00;99.90
21104;DHT22;10710;53.398;-1.514;2022-12-07T00:22:01;5.00;99.90
21104;DHT22;10710;53.398;-1.514;2022-12-07T00:24:30;5.00;99.90
21104;DHT22;10710;53.398;-1.514;2022-12-07T00:27:01;4.90;99.90
21104;DHT22;10710;53.398;-1.514;2022-12-07T00:29:30;4.90;99.90
21104;DHT22;10710;53.398;-1.514;2022-12-07T00:32:10;5.00;99.90
21104;DHT22;10710;53.398;-1.514;2022-12-07T00:34:37;5.00;99.90
21104;DHT22;10710;53.398;-1.514;2022-12-07T00:37:17;5.00;99.90
21104;DHT22;10710;53.398;-1.514;2022-12-07T00:39:45;4.90;99.90
21104;DHT22;10710;53.398;-1.514;2022-12-07T00:42:14;5.00;99.90
21104;DHT22;10710;53.398;-1.514;2022-12-07T00:44:40;4.90;99.90
21104;DHT22;10710;53.398;-1.514;2022-12-07T00:47:06;4.90;99.90
21104;DHT22;10710;53.398;-1.514;2022-12-07T00:49:32;4.90;99.90
21104;DHT22;10710;53.398;-1.514;2022-12-07T00:51:57;4.80;99.90
21104;DHT22;10710;53.398;-1.514;2022-12-07T00:54:23;4.80;99.90
21104;DHT22;10710;53.398;-1.514;2022-12-07T00:56:49;4.80;99.90
21104;DHT22;10710;53.398;-1.514;2022-12-07T00:59:15;4.80;99.90
21104;DHT22;10710;53.398;-1.514;2022-12-07T01:01:41;4.80;99.90
21104;DHT22;10710;53.398;-1.514;2022-12-07T01:04:07;4.80;99.90
21104;DHT22;10710;53.398;-1.514;2022-12-07T01:06:33;4.80;99.90
21104;DHT22;10710;53.398;-1.514;2022-12-07T01:08:59;4.70;99.90
21104;DHT22;10710;53.398;-1.514;2022-12-07T01:11:28;4.70;99.90
21104;DHT22;10710;53.398;-1.514;2022-12-07T01:13:55;4.70;99.90
21104;DHT22;10710;53.398;-1.514;2022-12-07T01:16:23;4.60;99.90
21104;DHT22;10710;53.398;-1.514;2022-12-07T01:18:53;4.60;99.90
21104;DHT22;10710;53.398;-1.514;2022-12-07T01:21:23;4.60;99.90
21104;DHT22;10710;53.398;-1.514;2022-12-07T01:23:49;4.50;99.90
21104;DHT22;10710;53.398;-1.514;2022-12-07T01:26:17;4.50;99.90
21104;DHT22;10710;53.398;-1.514;2022-12-07T01:28:44;4.50;99.90
21104;DHT22;10710;53.398;-1.514;2022-12-07T01:31:15;4.40;99.90
21104;DHT22;10710;53.398;-1.514;2022-12-07T01:33:43;4.40;99.90
21104;DHT22;10710;53.398;-1.514;2022-12-07T01:38:43;4.50;99.90
21104;DHT22;10710;53.398;-1.514;2022-12-07T01:41:11;4.60;99.90
21104;DHT22;10710;53.398;-1.514;2022-12-07T01:44:06;4.60;99.90
21104;DHT22;10710;53.398;-1.514;2022-12-07T01:46:23;4.60;99.90
21104;DHT22;10710;53.398;-1.514;2022-12-07T01:48:49;4.70;99.90
21104;DHT22;10710;53.398;-1.514;2022-12-07T01:51:15;4.80;99.90
21104;DHT22;10710;53.398;-1.514;2022-12-07T01:53:44;4.90;99.90
21104;DHT22;10710;53.398;-1.514;2022-12-07T01:56:17;4.80;99.90
21104;DHT22;10710;53.398;-1.514;2022-12-07T01:58:48;4.90;99.90
21104;DHT22;10710;53.398;-1.514;2022-12-07T02:01:14;4.90;99.90
21104;DHT22;10710;53.398;-1.514;2022-12-07T02:03:48;4.90;99.90
21104;DHT22;10710;53.398;-1.514;2022-12-07T02:06:23;5.00;99.90
21104;DHT22;10710;53.398;-1.514;2022-12-07T02:08:53;5.00;99.90
21104;DHT22;10710;53.398;-1.514;2022-12-07T02:11:20;5.00;99.90
21104;DHT22;10710;53.398;-1.514;2022-12-07T02:13:46;4.90;99.90
21104;DHT22;10710;53.398;-1.514;2022-12-07T02:22:11;5.00;99.90
21104;DHT22;10710;53.398;-1.514;2022-12-07T02:25:22;5.00;99.90
21104;DHT22;10710;53.398;-1.514;2022-12-07T02:30:48;4.90;99.90
21104;DHT22;10710;53.398;-1.514;2022-12-07T02:33:28;4.80;99.90
21104;DHT22;10710;53.398;-1.514;2022-12-07T02:36:10;4.80;99.90
21104;DHT22;10710;53.398;-1.514;2022-12-07T02:38:47;4.80;99.90
21104;DHT22;10710;53.398;-1.514;2022-12-07T02:41:37;4.60;99.90
21104;DHT22;10710;53.398;-1.514;2022-12-07T02:44:10;4.50;99.90
21104;DHT22;10710;53.398;-1.514;2022-12-07T02:46:42;4.40;99.90
21104;DHT22;10710;53.398;-1.514;2022-12-07T02:49:09;4.30;99.90
21104;DHT22;10710;53.398;-1.514;2022-12-07T02:51:40;4.30;99.90
21104;DHT22;10710;53.398;-1.514;2022-12-07T02:54:13;4.30;99.90
21104;DHT22;10710;53.398;-1.514;2022-12-07T02:59:49;4.20;99.90
21104;DHT22;10710;53.398;-1.514;2022-12-07T03:11:03;4.00;99.90
21104;DHT22;10710;53.398;-1.514;2022-12-07T03:16:45;3.80;99.90
21104;DHT22;10710;53.398;-1.514;2022-12-07T03:19:15;3.80;99.90
21104;DHT22;10710;53.398;-1.514;2022-12-07T03:21:47;3.80;99.90
21104;DHT22;10710;53.398;-1.514;2022-12-07T03:24:18;3.70;99.90
21104;DHT22;10710;53.398;-1.514;2022-12-07T03:26:51;3.70;99.90
21104;DHT22;10710;53.398;-1.514;2022-12-07T03:29:25;3.50;99.90
21104;DHT22;10710;53.398;-1.514;2022-12-07T03:31:59;3.40;99.90
21104;DHT22;10710;53.398;-1.514;2022-12-07T03:34:34;3.40;99.90
21104;DHT22;10710;53.398;-1.514;2022-12-07T03:37:07;3.40;99.90
21104;DHT22;10710;53.398;-1.514;2022-12-07T03:39:38;3.40;99.90
21104;DHT22;10710;53.398;-1.514;2022-12-07T03:42:06;3.40;99.90
21104;DHT22;10710;53.398;-1.514;2022-12-07T03:44:34;3.30;99.90
21104;DHT22;10710;53.398;-1.514;2022-12-07T03:49:52;3.20;99.90
21104;DHT22;10710;53.398;-1.514;2022-12-07T03:55:27;3.10;99.90
21104;DHT22;10710;53.398;-1.514;2022-12-07T03:57:58;3.00;99.90
21104;DHT22;10710;53.398;-1.514;2022-12-07T04:00:26;3.00;99.90
21104;DHT22;10710;53.398;-1.514;2022-12-07T04:02:53;2.90;99.90
21104;DHT22;10710;53.398;-1.514;2022-12-07T04:05:19;3.00;99.90
21104;DHT22;10710;53.398;-1.514;2022-12-07T04:07:44;3.10;99.90
21104;DHT22;10710;53.398;-1.514;2022-12-07T04:10:11;2.90;99.90
21104;DHT22;10710;53.398;-1.514;2022-12-07T04:12:38;2.90;99.90
21104;DHT22;10710;53.398;-1.514;2022-12-07T04:15:04;2.90;99.90
21104;DHT22;10710;53.398;-1.514;2022-12-07T04:17:30;3.00;99.90
21104;DHT22;10710;53.398;-1.514;2022-12-07T04:19:56;3.00;99.90
21104;DHT22;10710;53.398;-1.514;2022-12-07T04:22:22;3.00;99.90
21104;DHT22;10710;53.398;-1.514;2022-12-07T04:24:48;3.00;99.90
21104;DHT22;10710;53.398;-1.514;2022-12-07T04:27:14;3.00;99.90
21104;DHT22;10710;53.398;-1.514;2022-12-07T04:29:40;3.00;99.90
21104;DHT22;10710;53.398;-1.514;2022-12-07T04:32:05;3.00;99.90
21104;DHT22;10710;53.398;-1.514;2022-12-07T04:34:31;3.00;99.90
21104;DHT22;10710;53.398;-1.514;2022-12-07T04:36:58;3.00;99.90
21104;DHT22;10710;53.398;-1.514;2022-12-07T04:39:28;3.00;99.90
21104;DHT22;10710;53.398;-1.514;2022-12-07T04:41:55;3.00;99.90
21104;DHT22;10710;53.398;-1.514;2022-12-07T04:44:21;3.10;99.90
21104;DHT22;10710;53.398;-1.514;2022-12-07T04:46:48;3.00;99.90
21104;DHT22;10710;53.398;-1.514;2022-12-07T04:49:16;2.90;99.90
21104;DHT22;10710;53.398;-1.514;2022-12-07T04:51:43;3.00;99.90
21104;DHT22;10710;53.398;-1.514;2022-12-07T04:54:09;2.90;99.90
21104;DHT22;10710;53.398;-1.514;2022-12-07T04:56:35;3.00;99.90
21104;DHT22;10710;53.398;-1.514;2022-12-07T04:59:02;2.90;99.90
21104;DHT22;10710;53.398;-1.514;2022-12-07T05:01:28;2.90;99.90
21104;DHT22;10710;53.398;-1.514;2022-12-07T05:03:53;2.90;99.90
21104;DHT22;10710;53.398;-1.514;2022-12-07T05:06:19;3.00;99.90
21104;DHT22;10710;53.398;-1.514;2022-12-07T05:08:45;3.00;99.90
21104;DHT22;10710;53.398;-1.514;2022-12-07T05:11:12;2.90;99.90
21104;DHT22;10710;53.398;-1.514;2022-12-07T05:13:57;2.90;99.90
21104;DHT22;10710;53.398;-1.514;2022-12-07T05:16:23;2.90;99.90
21104;DHT22;10710;53.398;-1.514;2022-12-07T05:18:49;2.80;99.90
21104;DHT22;10710;53.398;-1.514;2022-12-07T05:21:15;2.80;99.90
21104;DHT22;10710;53.398;-1.514;2022-12-07T05:23:40;2.80;99.90
21104;DHT22;10710;53.398;-1.514;2022-12-07T05:26:06;2.80;99.90
21104;DHT22;10710;53.398;-1.514;2022-12-07T05:28:32;2.70;99.90
21104;DHT22;10710;53.398;-1.514;2022-12-07T05:30:58;2.60;99.90
21104;DHT22;10710;53.398;-1.514;2022-12-07T05:33:24;2.70;99.90
21104;DHT22;10710;53.398;-1.514;2022-12-07T05:35:51;2.70;99.90
21104;DHT22;10710;53.398;-1.514;2022-12-07T05:38:17;2.60;99.90
21104;DHT22;10710;53.398;-1.514;2022-12-07T05:40:43;2.70;99.90
21104;DHT22;10710;53.398;-1.514;2022-12-07T05:43:09;2.70;99.90
21104;DHT22;10710;53.398;-1.514;2022-12-07T05:45:36;2.70;99.90
21104;DHT22;10710;53.398;-1.514;2022-12-07T05:48:01;2.80;99.90
21104;DHT22;10710;53.398;-1.514;2022-12-07T05:50:27;2.70;99.90
21104;DHT22;10710;53.398;-1.514;2022-12-07T05:52:53;2.60;99.90
21104;DHT22;10710;53.398;-1.514;2022-12-07T05:55:20;2.70;99.90
21104;DHT22;10710;53.398;-1.514;2022-12-07T05:57:46;2.60;99.90
21104;DHT22;10710;53.398;-1.514;2022-12-07T06:00:31;2.60;99.90
21104;DHT22;10710;53.398;-1.514;2022-12-07T06:02:57;2.50;99.90
21104;DHT22;10710;53.398;-1.514;2022-12-07T06:05:23;2.50;99.90
21104;DHT22;10710;53.398;-1.514;2022-12-07T06:07:49;2.50;99.90
21104;DHT22;10710;53.398;-1.514;2022-12-07T06:10:15;2.50;99.90
21104;DHT22;10710;53.398;-1.514;2022-12-07T06:12:41;2.50;99.90
21104;DHT22;10710;53.398;-1.514;2022-12-07T06:15:09;2.50;99.90
21104;DHT22;10710;53.398;-1.514;2022-12-07T06:17:36;2.50;99.90
21104;DHT22;10710;53.398;-1.514;2022-12-07T06:20:03;2.50;99.90
21104;DHT22;10710;53.398;-1.514;2022-12-07T06:22:29;2.40;99.90
21104;DHT22;10710;53.398;-1.514;2022-12-07T06:24:54;2.40;99.90
21104;DHT22;10710;53.398;-1.514;2022-12-07T06:27:20;2.40;99.90
21104;DHT22;10710;53.398;-1.514;2022-12-07T06:29:46;2.40;99.90
21104;DHT22;10710;53.398;-1.514;2022-12-07T06:32:12;2.30;99.90
21104;DHT22;10710;53.398;-1.514;2022-12-07T06:34:38;2.40;99.90
21104;DHT22;10710;53.398;-1.514;2022-12-07T06:37:04;2.40;99.90
21104;DHT22;10710;53.398;-1.514;2022-12-07T06:39:30;2.40;99.90
21104;DHT22;10710;53.398;-1.514;2022-12-07T06:41:56;2.40;99.90
21104;DHT22;10710;53.398;-1.514;2022-12-07T06:44:23;2.40;99.90
21104;DHT22;10710;53.398;-1.514;2022-12-07T06:46:49;2.40;99.90
21104;DHT22;10710;53.398;-1.514;2022-12-07T06:49:16;2.50;99.90
21104;DHT22;10710;53.398;-1.514;2022-12-07T06:51:42;2.40;99.90
21104;DHT22;10710;53.398;-1.514;2022-12-07T06:54:09;2.50;99.90
21104;DHT22;10710;53.398;-1.514;2022-12-07T06:56:35;2.40;99.90
21104;DHT22;10710;53.398;-1.514;2022-12-07T06:59:01;2.50;99.90
21104;DHT22;10710;53.398;-1.514;2022-12-07T07:01:27;2.50;99.90
21104;DHT22;10710;53.398;-1.514;2022-12-07T07:03:53;2.50;99.90
21104;DHT22;10710;53.398;-1.514;2022-12-07T07:06:19;2.50;99.90
21104;DHT22;10710;53.398;-1.514;2022-12-07T07:08:45;2.40;99.90
21104;DHT22;10710;53.398;-1.514;2022-12-07T07:11:12;2.50;99.90
21104;DHT22;10710;53.398;-1.514;2022-12-07T07:13:38;2.50;99.90
21104;DHT22;10710;53.398;-1.514;2022-12-07T07:16:04;2.40;99.90
21104;DHT22;10710;53.398;-1.514;2022-12-07T07:18:31;2.50;99.90
21104;DHT22;10710;53.398;-1.514;2022-12-07T07:20:56;2.40;99.90
21104;DHT22;10710;53.398;-1.514;2022-12-07T07:23:23;2.30;99.90
21104;DHT22;10710;53.398;-1.514;2022-12-07T07:25:49;2.30;99.90
21104;DHT22;10710;53.398;-1.514;2022-12-07T07:28:16;2.40;99.90
21104;DHT22;10710;53.398;-1.514;2022-12-07T07:30:41;2.40;99.90
21104;DHT22;10710;53.398;-1.514;2022-12-07T07:33:09;2.50;99.90
21104;DHT22;10710;53.398;-1.514;2022-12-07T07:35:36;2.40;99.90
21104;DHT22;10710;53.398;-1.514;2022-12-07T07:38:02;2.50;99.90
21104;DHT22;10710;53.398;-1.514;2022-12-07T07:40:30;2.30;99.90
21104;DHT22;10710;53.398;-1.514;2022-12-07T07:42:56;2.30;99.90
21104;DHT22;10710;53.398;-1.514;2022-12-07T07:45:24;2.30;99.90
21104;DHT22;10710;53.398;-1.514;2022-12-07T07:47:51;2.30;99.90
21104;DHT22;10710;53.398;-1.514;2022-12-07T07:50:17;2.20;99.90
21104;DHT22;10710;53.398;-1.514;2022-12-07T07:52:44;2.20;99.90
21104;DHT22;10710;53.398;-1.514;2022-12-07T07:55:10;2.20;99.90
21104;DHT22;10710;53.398;-1.514;2022-12-07T07:57:37;2.20;99.90
21104;DHT22;10710;53.398;-1.514;2022-12-07T08:00:05;2.30;99.90
21104;DHT22;10710;53.398;-1.514;2022-12-07T08:02:32;2.30;99.90
21104;DHT22;10710;53.398;-1.514;2022-12-07T08:04:58;2.30;99.90
21104;DHT22;10710;53.398;-1.514;2022-12-07T08:07:23;2.30;99.90
21104;DHT22;10710;53.398;-1.514;2022-12-07T08:09:50;2.40;99.90
21104;DHT22;10710;53.398;-1.514;2022-12-07T08:12:16;2.40;99.90
21104;DHT22;10710;53.398;-1.514;2022-12-07T08:14:42;2.40;99.90
21104;DHT22;10710;53.398;-1.514;2022-12-07T08:17:08;2.30;99.90
21104;DHT22;10710;53.398;-1.514;2022-12-07T08:19:34;2.40;99.90
21104;DHT22;10710;53.398;-1.514;2022-12-07T08:22:00;2.40;99.90
21104;DHT22;10710;53.398;-1.514;2022-12-07T08:24:26;2.40;99.90
21104;DHT22;10710;53.398;-1.514;2022-12-07T08:26:52;2.30;99.90
21104;DHT22;10710;53.398;-1.514;2022-12-07T08:29:18;2.30;99.90
21104;DHT22;10710;53.398;-1.514;2022-12-07T08:31:44;2.30;99.90
21104;DHT22;10710;53.398;-1.514;2022-12-07T08:34:11;2.30;99.90
21104;DHT22;10710;53.398;-1.514;2022-12-07T08:36:39;2.30;99.90
21104;DHT22;10710;53.398;-1.514;2022-12-07T08:39:05;2.20;99.90
21104;DHT22;10710;53.398;-1.514;2022-12-07T08:41:32;2.30;99.90
21104;DHT22;10710;53.398;-1.514;2022-12-07T08:43:57;2.30;99.90
21104;DHT22;10710;53.398;-1.514;2022-12-07T08:46:47;2.30;99.90
21104;DHT22;10710;53.398;-1.514;2022-12-07T08:49:39;2.40;99.90
21104;DHT22;10710;53.398;-1.514;2022-12-07T08:52:06;2.40;99.90
21104;DHT22;10710;53.398;-1.514;2022-12-07T08:54:34;2.40;99.90
21104;DHT22;10710;53.398;-1.514;2022-12-07T08:57:02;2.40;99.90
21104;DHT22;10710;53.398;-1.514;2022-12-07T08:59:29;2.40;99.90
21104;DHT22;10710;53.398;-1.514;2022-12-07T09:01:55;2.50;99.90
21104;DHT22;10710;53.398;-1.514;2022-12-07T09:04:21;2.50;99.90
21104;DHT22;10710;53.398;-1.514;2022-12-07T09:06:47;2.50;99.90
21104;DHT22;10710;53.398;-1.514;2022-12-07T09:09:13;2.50;99.90
21104;DHT22;10710;53.398;-1.514;2022-12-07T09:11:40;2.50;99.90
21104;DHT22;10710;53.398;-1.514;2022-12-07T09:14:06;2.60;99.90
21104;DHT22;10710;53.398;-1.514;2022-12-07T09:16:31;2.60;99.90
21104;DHT22;10710;53.398;-1.514;2022-12-07T09:18:57;2.60;99.90
21104;DHT22;10710;53.398;-1.514;2022-12-07T09:21:23;2.70;99.90
21104;DHT22;10710;53.398;-1.514;2022-12-07T09:23:49;2.60;99.90
21104;DHT22;10710;53.398;-1.514;2022-12-07T09:26:15;2.60;99.90
21104;DHT22;10710;53.398;-1.514;2022-12-07T09:28:41;2.60;99.90
21104;DHT22;10710;53.398;-1.514;2022-12-07T09:31:06;2.50;99.90
21104;DHT22;10710;53.398;-1.514;2022-12-07T09:33:32;2.50;99.90
21104;DHT22;10710;53.398;-1.514;2022-12-07T09:35:58;2.60;99.90
21104;DHT22;10710;53.398;-1.514;2022-12-07T09:38:24;2.60;99.90
21104;DHT22;10710;53.398;-1.514;2022-12-07T09:40:53;2.70;99.90
21104;DHT22;10710;53.398;-1.514;2022-12-07T09:43:25;2.70;99.90
21104;DHT22;10710;53.398;-1.514;2022-12-07T09:45:53;2.70;99.90
21104;DHT22;10710;53.398;-1.514;2022-12-07T09:48:22;2.80;99.90
21104;DHT22;10710;53.398;-1.514;2022-12-07T09:50:51;2.90;99.90
21104;DHT22;10710;53.398;-1.514;2022-12-07T09:53:30;2.90;99.90
21104;DHT22;10710;53.398;-1.514;2022-12-07T09:55:59;3.00;99.90
21104;DHT22;10710;53.398;-1.514;2022-12-07T09:58:27;2.90;99.90
21104;DHT22;10710;53.398;-1.514;2022-12-07T10:01:00;2.80;99.90
21104;DHT22;10710;53.398;-1.514;2022-12-07T10:03:28;2.90;99.90
21104;DHT22;10710;53.398;-1.514;2022-12-07T10:05:55;3.00;99.90
21104;DHT22;10710;53.398;-1.514;2022-12-07T10:08:24;3.10;99.90
21104;DHT22;10710;53.398;-1.514;2022-12-07T10:10:53;3.20;99.90
21104;DHT22;10710;53.398;-1.514;2022-12-07T10:13:22;3.20;99.90
21104;DHT22;10710;53.398;-1.514;2022-12-07T10:15:53;3.20;99.90
21104;DHT22;10710;53.398;-1.514;2022-12-07T10:21:23;3.30;99.90
21104;DHT22;10710;53.398;-1.514;2022-12-07T10:26:50;3.60;99.90
21104;DHT22;10710;53.398;-1.514;2022-12-07T10:29:23;3.60;99.90
21104;DHT22;10710;53.398;-1.514;2022-12-07T10:34:22;3.70;99.90
21104;DHT22;10710;53.398;-1.514;2022-12-07T10:36:50;3.80;99.90
21104;DHT22;10710;53.398;-1.514;2022-12-07T10:39:20;4.00;99.90
21104;DHT22;10710;53.398;-1.514;2022-12-07T10:41:59;4.10;99.90
21104;DHT22;10710;53.398;-1.514;2022-12-07T10:44:32;4.30;99.90
21104;DHT22;10710;53.398;-1.514;2022-12-07T10:47:29;4.60;99.90
21104;DHT22;10710;53.398;-1.514;2022-12-07T10:52:45;4.80;99.90
21104;DHT22;10710;53.398;-1.514;2022-12-07T10:55:36;4.90;99.90
21104;DHT22;10710;53.398;-1.514;2022-12-07T10:58:37;4.90;99.90
21104;DHT22;10710;53.398;-1.514;2022-12-07T11:04:24;5.00;99.90
21104;DHT22;10710;53.398;-1.514;2022-12-07T11:09:47;5.00;99.90
21104;DHT22;10710;53.398;-1.514;2022-12-07T11:15:17;4.90;99.90
21104;DHT22;10710;53.398;-1.514;2022-12-07T11:18:09;5.00;99.90
21104;DHT22;10710;53.398;-1.514;2022-12-07T11:23:48;5.10;99.90
21104;DHT22;10710;53.398;-1.514;2022-12-07T11:26:34;5.20;99.90
21104;DHT22;10710;53.398;-1.514;2022-12-07T11:34:10;5.30;99.90
21104;DHT22;10710;53.398;-1.514;2022-12-07T11:36:43;5.40;99.90
21104;DHT22;10710;53.398;-1.514;2022-12-07T11:39:30;5.40;99.90
21104;DHT22;10710;53.398;-1.514;2022-12-07T11:42:12;5.40;99.90
21104;DHT22;10710;53.398;-1.514;2022-12-07T11:47:28;5.50;99.90
21104;DHT22;10710;53.398;-1.514;2022-12-07T11:52:53;5.70;99.90
21104;DHT22;10710;53.398;-1.514;2022-12-07T11:55:49;5.70;99.90
21104;DHT22;10710;53.398;-1.514;2022-12-07T12:00:42;5.70;99.90
21104;DHT22;10710;53.398;-1.514;2022-12-07T12:03:15;5.80;99.90
21104;DHT22;10710;53.398;-1.514;2022-12-07T12:05:42;5.80;99.90
21104;DHT22;10710;53.398;-1.514;2022-12-07T12:08:30;5.80;99.90
21104;DHT22;10710;53.398;-1.514;2022-12-07T12:21:34;5.80;99.90
21104;DHT22;10710;53.398;-1.514;2022-12-07T12:26:38;5.80;99.90
21104;DHT22;10710;53.398;-1.514;2022-12-07T12:29:21;5.90;99.90
21104;DHT22;10710;53.398;-1.514;2022-12-07T12:32:18;5.90;99.90
21104;DHT22;10710;53.398;-1.514;2022-12-07T12:37:47;6.00;99.90
21104;DHT22;10710;53.398;-1.514;2022-12-07T12:42:46;6.10;99.90
21104;DHT22;10710;53.398;-1.514;2022-12-07T12:45:25;6.10;99.90
21104;DHT22;10710;53.398;-1.514;2022-12-07T12:50:35;6.20;99.90
21104;DHT22;10710;53.398;-1.514;2022-12-07T13:00:43;6.00;99.90
21104;DHT22;10710;53.398;-1.514;2022-12-07T13:03:24;6.10;99.90
21104;DHT22;10710;53.398;-1.514;2022-12-07T13:08:56;6.10;99.90
21104;DHT22;10710;53.398;-1.514;2022-12-07T13:11:38;6.10;99.90
21104;DHT22;10710;53.398;-1.514;2022-12-07T13:20:04;6.10;99.90
21104;DHT22;10710;53.398;-1.514;2022-12-07T13:27:29;6.00;99.90
21104;DHT22;10710;53.398;-1.514;2022-12-07T13:29:59;6.00;99.90
21104;DHT22;10710;53.398;-1.514;2022-12-07T13:32:27;5.90;99.90
21104;DHT22;10710;53.398;-1.514;2022-12-07T13:34:53;5.90;99.90
21104;DHT22;10710;53.398;-1.514;2022-12-07T13:37:30;5.90;99.90
21104;DHT22;10710;53.398;-1.514;2022-12-07T13:40:00;5.90;99.90
21104;DHT22;10710;53.398;-1.514;2022-12-07T13:42:37;5.80;99.90
21104;DHT22;10710;53.398;-1.514;2022-12-07T13:45:26;5.70;99.90
21104;DHT22;10710;53.398;-1.514;2022-12-07T13:48:33;5.70;99.90
21104;DHT22;10710;53.398;-1.514;2022-12-07T13:51:02;5.70;99.90
21104;DHT22;10710;53.398;-1.514;2022-12-07T13:53:28;5.60;99.90
21104;DHT22;10710;53.398;-1.514;2022-12-07T13:56:00;5.70;99.90
21104;DHT22;10710;53.398;-1.514;2022-12-07T13:58:30;5.60;99.90
21104;DHT22;10710;53.398;-1.514;2022-12-07T14:00:58;5.60;99.90
21104;DHT22;10710;53.398;-1.514;2022-12-07T14:03:28;5.70;99.90
21104;DHT22;10710;53.398;-1.514;2022-12-07T14:06:24;5.80;99.90
21104;DHT22;10710;53.398;-1.514;2022-12-07T14:09:09;5.80;99.90
21104;DHT22;10710;53.398;-1.514;2022-12-07T14:11:42;5.90;99.90
21104;DHT22;10710;53.398;-1.514;2022-12-07T14:14:15;6.00;99.90
21104;DHT22;10710;53.398;-1.514;2022-12-07T14:16:42;6.10;99.90
21104;DHT22;10710;53.398;-1.514;2022-12-07T14:19:41;6.20;99.90
21104;DHT22;10710;53.398;-1.514;2022-12-07T14:22:19;6.30;99.90
21104;DHT22;10710;53.398;-1.514;2022-12-07T14:24:45;6.50;99.90
21104;DHT22;10710;53.398;-1.514;2022-12-07T14:27:23;6.70;99.90
21104;DHT22;10710;53.398;-1.514;2022-12-07T14:29:51;6.60;99.90
21104;DHT22;10710;53.398;-1.514;2022-12-07T14:32:24;6.60;99.90
21104;DHT22;10710;53.398;-1.514;2022-12-07T14:37:21;6.80;99.90
21104;DHT22;10710;53.398;-1.514;2022-12-07T14:39:46;7.00;99.90
21104;DHT22;10710;53.398;-1.514;2022-12-07T14:42:12;7.10;99.90
21104;DHT22;10710;53.398;-1.514;2022-12-07T14:44:38;7.40;99.90
21104;DHT22;10710;53.398;-1.514;2022-12-07T14:47:04;7.50;99.90
21104;DHT22;10710;53.398;-1.514;2022-12-07T14:49:30;7.30;99.90
21104;DHT22;10710;53.398;-1.514;2022-12-07T14:51:55;6.90;99.90
21104;DHT22;10710;53.398;-1.514;2022-12-07T14:54:24;6.50;99.90
21104;DHT22;10710;53.398;-1.514;2022-12-07T14:56:51;6.30;99.90
21104;DHT22;10710;53.398;-1.514;2022-12-07T14:59:17;6.10;99.90
21104;DHT22;10710;53.398;-1.514;2022-12-07T15:01:44;5.90;99.90
21104;DHT22;10710;53.398;-1.514;2022-12-07T15:04:10;5.70;99.90
21104;DHT22;10710;53.398;-1.514;2022-12-07T15:06:37;5.60;99.90
21104;DHT22;10710;53.398;-1.514;2022-12-07T15:09:03;5.60;99.90
21104;DHT22;10710;53.398;-1.514;2022-12-07T15:11:29;5.50;99.90
21104;DHT22;10710;53.398;-1.514;2022-12-07T15:13:55;5.40;99.90
21104;DHT22;10710;53.398;-1.514;2022-12-07T15:16:34;5.30;99.90
21104;DHT22;10710;53.398;-1.514;2022-12-07T15:19:00;5.20;99.90
21104;DHT22;10710;53.398;-1.514;2022-12-07T15:21:25;5.10;99.90
21104;DHT22;10710;53.398;-1.514;2022-12-07T15:23:51;5.10;99.90
21104;DHT22;10710;53.398;-1.514;2022-12-07T15:26:17;5.00;99.90
21104;DHT22;10710;53.398;-1.514;2022-12-07T15:28:43;5.00;99.90
21104;DHT22;10710;53.398;-1.514;2022-12-07T15:31:16;5.00;99.90
21104;DHT22;10710;53.398;-1.514;2022-12-07T15:33:43;4.90;99.90
21104;DHT22;10710;53.398;-1.514;2022-12-07T15:36:22;4.80;99.90
21104;DHT22;10710;53.398;-1.514;2022-12-07T15:38:48;4.70;99.90
21104;DHT22;10710;53.398;-1.514;2022-12-07T15:41:14;4.60;99.90
21104;DHT22;10710;53.398;-1.514;2022-12-07T15:43:40;4.50;99.90
21104;DHT22;10710;53.398;-1.514;2022-12-07T15:46:39;4.50;99.90
21104;DHT22;10710;53.398;-1.514;2022-12-07T15:49:17;4.50;99.90
21104;DHT22;10710;53.398;-1.514;2022-12-07T15:51:44;4.50;99.90
21104;DHT22;10710;53.398;-1.514;2022-12-07T15:54:24;4.50;99.90
21104;DHT22;10710;53.398;-1.514;2022-12-07T15:56:51;4.40;99.90
21104;DHT22;10710;53.398;-1.514;2022-12-07T15:59:18;4.50;99.90
21104;DHT22;10710;53.398;-1.514;2022-12-07T16:01:44;4.50;99.90
21104;DHT22;10710;53.398;-1.514;2022-12-07T16:04:10;4.60;99.90
21104;DHT22;10710;53.398;-1.514;2022-12-07T16:06:36;4.60;99.90
21104;DHT22;10710;53.398;-1.514;2022-12-07T16:09:03;4.60;99.90
21104;DHT22;10710;53.398;-1.514;2022-12-07T16:11:30;4.70;99.90
21104;DHT22;10710;53.398;-1.514;2022-12-07T16:13:55;4.80;99.90
21104;DHT22;10710;53.398;-1.514;2022-12-07T16:16:22;4.70;99.90
21104;DHT22;10710;53.398;-1.514;2022-12-07T16:18:50;4.70;99.90
21104;DHT22;10710;53.398;-1.514;2022-12-07T16:21:17;4.70;99.90
21104;DHT22;10710;53.398;-1.514;2022-12-07T16:23:43;4.80;99.90
21104;DHT22;10710;53.398;-1.514;2022-12-07T16:26:18;4.80;99.90
21104;DHT22;10710;53.398;-1.514;2022-12-07T16:28:45;4.80;99.90
21104;DHT22;10710;53.398;-1.514;2022-12-07T16:31:15;4.80;99.90
21104;DHT22;10710;53.398;-1.514;2022-12-07T16:33:42;4.70;99.90
21104;DHT22;10710;53.398;-1.514;2022-12-07T16:36:11;4.60;99.90
21104;DHT22;10710;53.398;-1.514;2022-12-07T16:38:39;4.60;99.90
21104;DHT22;10710;53.398;-1.514;2022-12-07T16:41:06;4.50;99.90
21104;DHT22;10710;53.398;-1.514;2022-12-07T16:43:33;4.40;99.90
21104;DHT22;10710;53.398;-1.514;2022-12-07T16:46:00;4.30;99.90
21104;DHT22;10710;53.398;-1.514;2022-12-07T16:48:26;4.20;99.90
21104;DHT22;10710;53.398;-1.514;2022-12-07T16:50:52;4.20;99.90
21104;DHT22;10710;53.398;-1.514;2022-12-07T16:53:22;4.20;99.90
21104;DHT22;10710;53.398;-1.514;2022-12-07T16:55:49;4.10;99.90
21104;DHT22;10710;53.398;-1.514;2022-12-07T16:58:15;4.00;99.90
21104;DHT22;10710;53.398;-1.514;2022-12-07T17:00:42;4.00;99.90
21104;DHT22;10710;53.398;-1.514;2022-12-07T17:03:09;3.90;99.90
21104;DHT22;10710;53.398;-1.514;2022-12-07T17:05:41;3.90;99.90
21104;DHT22;10710;53.398;-1.514;2022-12-07T17:08:08;3.80;99.90
21104;DHT22;10710;53.398;-1.514;2022-12-07T17:10:36;3.90;99.90
21104;DHT22;10710;53.398;-1.514;2022-12-07T17:13:03;3.90;99.90
21104;DHT22;10710;53.398;-1.514;2022-12-07T17:15:57;3.80;99.90
21104;DHT22;10710;53.398;-1.514;2022-12-07T17:18:27;3.80;99.90
21104;DHT22;10710;53.398;-1.514;2022-12-07T17:20:54;3.80;99.90
21104;DHT22;10710;53.398;-1.514;2022-12-07T17:23:22;3.70;99.90
21104;DHT22;10710;53.398;-1.514;2022-12-07T17:25:49;3.60;99.90
21104;DHT22;10710;53.398;-1.514;2022-12-07T17:28:15;3.50;99.90
21104;DHT22;10710;53.398;-1.514;2022-12-07T17:30:41;3.60;99.90
21104;DHT22;10710;53.398;-1.514;2022-12-07T17:33:07;3.60;99.90
21104;DHT22;10710;53.398;-1.514;2022-12-07T17:35:33;3.50;99.90
21104;DHT22;10710;53.398;-1.514;2022-12-07T17:37:58;3.50;99.90
21104;DHT22;10710;53.398;-1.514;2022-12-07T17:40:24;3.50;99.90